sensor_id;sensor_type;location;lat;lon;timestamp;temperature;humidity
6307;DHT22;3186;54.062;9.962;2022-07-23T00:01:29;18.80;68.00
6307;DHT22;3186;54.062;9.962;2022-07-23T00:03:55;18.80;68.70
6307;DHT22;3186;54.062;9.962;2022-07-23T00:06:22;18.70;71.70
6307;DHT22;3186;54.062;9.962;2022-07-23T00:08:49;18.70;70.80
6307;DHT22;3186;54.062;9.962;2022-07-23T00:11:15;18.70;70.20
6307;DHT22;3186;54.062;9.962;2022-07-23T00:13:41;18.70;71.40
6307;DHT22;3186;54.062;9.962;2022-07-23T00:16:07;18.70;72.50
6307;DHT22;3186;54.062;9.962;2022-07-23T00:18:33;18.70;73.30
6307;DHT22;3186;54.062;9.962;2022-07-23T00:20:59;18.70;73.10
6307;DHT22;3186;54.062;9.962;2022-07-23T00:23:25;18.70;73.20
6307;DHT22;3186;54.062;9.962;2022-07-23T00:25:52;18.60;74.10
6307;DHT22;3186;54.062;9.962;2022-07-23T00:28:18;18.70;75.50
6307;DHT22;3186;54.062;9.962;2022-07-23T00:30:44;18.60;76.60
6307;DHT22;3186;54.062;9.962;2022-07-23T00:33:10;18.60;76.30
6307;DHT22;3186;54.062;9.962;2022-07-23T00:35:38;18.60;75.90
6307;DHT22;3186;54.062;9.962;2022-07-23T00:38:07;18.60;75.90
6307;DHT22;3186;54.062;9.962;2022-07-23T00:40:34;18.60;76.60
6307;DHT22;3186;54.062;9.962;2022-07-23T00:43:00;18.60;75.70
6307;DHT22;3186;54.062;9.962;2022-07-23T00:45:26;18.60;76.70
6307;DHT22;3186;54.062;9.962;2022-07-23T00:47:52;18.50;76.60
6307;DHT22;3186;54.062;9.962;2022-07-23T00:50:18;18.60;77.10
6307;DHT22;3186;54.062;9.962;2022-07-23T00:52:44;18.50;76.80
6307;DHT22;3186;54.062;9.962;2022-07-23T00:55:11;18.50;77.00
6307;DHT22;3186;54.062;9.962;2022-07-23T00:57:40;18.50;78.80
6307;DHT22;3186;54.062;9.962;2022-07-23T01:00:08;18.50;78.60
6307;DHT22;3186;54.062;9.962;2022-07-23T01:02:35;18.40;79.00
6307;DHT22;3186;54.062;9.962;2022-07-23T01:05:00;18.40;80.00
6307;DHT22;3186;54.062;9.962;2022-07-23T01:07:27;18.40;79.60
6307;DHT22;3186;54.062;9.962;2022-07-23T01:09:54;18.40;81.00
6307;DHT22;3186;54.062;9.962;2022-07-23T01:12:20;18.40;81.00
6307;DHT22;3186;54.062;9.962;2022-07-23T01:14:56;18.40;81.40
6307;DHT22;3186;54.062;9.962;2022-07-23T01:17:23;18.30;81.10
6307;DHT22;3186;54.062;9.962;2022-07-23T01:19:49;18.30;82.40
6307;DHT22;3186;54.062;9.962;2022-07-23T01:22:19;18.30;83.70
6307;DHT22;3186;54.062;9.962;2022-07-23T01:24:46;18.20;89.40
6307;DHT22;3186;54.062;9.962;2022-07-23T01:27:12;18.30;89.50
6307;DHT22;3186;54.062;9.962;2022-07-23T01:29:39;18.30;90.00
6307;DHT22;3186;54.062;9.962;2022-07-23T01:32:16;18.30;90.30
6307;DHT22;3186;54.062;9.962;2022-07-23T01:34:42;18.30;91.30
6307;DHT22;3186;54.062;9.962;2022-07-23T01:37:08;18.30;91.80
6307;DHT22;3186;54.062;9.962;2022-07-23T01:39:34;18.30;91.50
6307;DHT22;3186;54.062;9.962;2022-07-23T01:42:00;18.30;92.50
6307;DHT22;3186;54.062;9.962;2022-07-23T01:44:27;18.30;93.10
6307;DHT22;3186;54.062;9.962;2022-07-23T01:46:53;18.30;93.50
6307;DHT22;3186;54.062;9.962;2022-07-23T01:49:20;18.20;93.70
6307;DHT22;3186;54.062;9.962;2022-07-23T01:52:06;18.20;96.00
6307;DHT22;3186;54.062;9.962;2022-07-23T01:54:40;18.20;95.10
6307;DHT22;3186;54.062;9.962;2022-07-23T01:57:08;18.10;95.60
6307;DHT22;3186;54.062;9.962;2022-07-23T01:59:34;18.10;94.90
6307;DHT22;3186;54.062;9.962;2022-07-23T02:02:02;18.10;95.40
6307;DHT22;3186;54.062;9.962;2022-07-23T02:04:30;18.10;95.10
6307;DHT22;3186;54.062;9.962;2022-07-23T02:06:56;18.10;95.30
6307;DHT22;3186;54.062;9.962;2022-07-23T02:09:22;18.10;95.40
6307;DHT22;3186;54.062;9.962;2022-07-23T02:11:48;18.10;95.90
6307;DHT22;3186;54.062;9.962;2022-07-23T02:14:14;18.10;95.80
6307;DHT22;3186;54.062;9.962;2022-07-23T02:16:40;18.00;96.50
6307;DHT22;3186;54.062;9.962;2022-07-23T02:19:05;18.00;96.10
6307;DHT22;3186;54.062;9.962;2022-07-23T02:21:31;18.10;96.60
6307;DHT22;3186;54.062;9.962;2022-07-23T02:23:57;18.00;96.20
6307;DHT22;3186;54.062;9.962;2022-07-23T02:26:23;18.00;96.60
6307;DHT22;3186;54.062;9.962;2022-07-23T02:28:51;18.00;96.70
6307;DHT22;3186;54.062;9.962;2022-07-23T02:31:19;17.90;96.50
6307;DHT22;3186;54.062;9.962;2022-07-23T02:33:45;17.90;97.00
6307;DHT22;3186;54.062;9.962;2022-07-23T02:36:11;17.90;96.80
6307;DHT22;3186;54.062;9.962;2022-07-23T02:38:36;17.90;97.20
6307;DHT22;3186;54.062;9.962;2022-07-23T02:41:03;17.80;97.60
6307;DHT22;3186;54.062;9.962;2022-07-23T02:43:29;17.80;98.10
6307;DHT22;3186;54.062;9.962;2022-07-23T02:45:55;17.90;97.80
6307;DHT22;3186;54.062;9.962;2022-07-23T02:48:21;17.80;99.40
6307;DHT22;3186;54.062;9.962;2022-07-23T02:50:48;17.80;98.80
6307;DHT22;3186;54.062;9.962;2022-07-23T02:53:18;17.80;98.80
6307;DHT22;3186;54.062;9.962;2022-07-23T02:55:45;17.80;99.30
6307;DHT22;3186;54.062;9.962;2022-07-23T02:58:10;17.70;98.90
6307;DHT22;3186;54.062;9.962;2022-07-23T03:00:36;17.80;98.80
6307;DHT22;3186;54.062;9.962;2022-07-23T03:03:02;17.70;99.30
6307;DHT22;3186;54.062;9.962;2022-07-23T03:05:29;17.70;99.90
6307;DHT22;3186;54.062;9.962;2022-07-23T03:07:55;17.70;99.90
6307;DHT22;3186;54.062;9.962;2022-07-23T03:10:21;17.60;99.90
6307;DHT22;3186;54.062;9.962;2022-07-23T03:12:47;17.60;99.90
6307;DHT22;3186;54.062;9.962;2022-07-23T03:15:13;17.60;99.90
6307;DHT22;3186;54.062;9.962;2022-07-23T03:17:39;17.60;99.90
6307;DHT22;3186;54.062;9.962;2022-07-23T03:20:06;17.60;99.90
6307;DHT22;3186;54.062;9.962;2022-07-23T03:22:32;17.60;99.90
6307;DHT22;3186;54.062;9.962;2022-07-23T03:24:58;17.70;99.90
6307;DHT22;3186;54.062;9.962;2022-07-23T03:27:31;17.70;99.90
6307;DHT22;3186;54.062;9.962;2022-07-23T03:29:59;17.70;99.90
6307;DHT22;3186;54.062;9.962;2022-07-23T03:32:25;17.70;99.90
6307;DHT22;3186;54.062;9.962;2022-07-23T03:34:52;17.70;99.90
6307;DHT22;3186;54.062;9.962;2022-07-23T03:37:18;17.70;99.90
6307;DHT22;3186;54.062;9.962;2022-07-23T03:39:46;17.60;99.90
6307;DHT22;3186;54.062;9.962;2022-07-23T03:42:12;17.60;99.90
6307;DHT22;3186;54.062;9.962;2022-07-23T03:44:38;17.60;99.90
6307;DHT22;3186;54.062;9.962;2022-07-23T03:47:05;17.60;99.90
6307;DHT22;3186;54.062;9.962;2022-07-23T03:49:32;17.60;99.90
6307;DHT22;3186;54.062;9.962;2022-07-23T03:51:58;17.60;99.90
6307;DHT22;3186;54.062;9.962;2022-07-23T03:54:24;17.60;99.90
6307;DHT22;3186;54.062;9.962;2022-07-23T03:56:50;17.50;99.90
6307;DHT22;3186;54.062;9.962;2022-07-23T03:59:16;17.50;99.90
6307;DHT22;3186;54.062;9.962;2022-07-23T04:01:42;17.50;99.90
6307;DHT22;3186;54.062;9.962;2022-07-23T04:04:08;17.50;99.90
6307;DHT22;3186;54.062;9.962;2022-07-23T04:06:36;17.50;99.90
6307;DHT22;3186;54.062;9.962;2022-07-23T04:09:03;17.50;99.90
6307;DHT22;3186;54.062;9.962;2022-07-23T04:11:32;17.50;99.90
6307;DHT22;3186;54.062;9.962;2022-07-23T04:13:58;17.50;99.90
6307;DHT22;3186;54.062;9.962;2022-07-23T04:16:24;17.50;99.90
6307;DHT22;3186;54.062;9.962;2022-07-23T04:18:50;17.40;99.90
6307;DHT22;3186;54.062;9.962;2022-07-23T04:21:19;17.40;99.90
6307;DHT22;3186;54.062;9.962;2022-07-23T04:23:46;17.50;99.90
6307;DHT22;3186;54.062;9.962;2022-07-23T04:26:13;17.40;99.90
6307;DHT22;3186;54.062;9.962;2022-07-23T04:28:39;17.50;99.90
6307;DHT22;3186;54.062;9.962;2022-07-23T04:31:05;17.50;99.90
6307;DHT22;3186;54.062;9.962;2022-07-23T04:33:32;17.40;99.90
6307;DHT22;3186;54.062;9.962;2022-07-23T04:36:03;17.50;99.90
6307;DHT22;3186;54.062;9.962;2022-07-23T04:38:29;17.50;99.90
6307;DHT22;3186;54.062;9.962;2022-07-23T04:40:59;17.40;99.90
6307;DHT22;3186;54.062;9.962;2022-07-23T04:43:26;17.50;99.90
6307;DHT22;3186;54.062;9.962;2022-07-23T04:45:53;17.50;99.90
6307;DHT22;3186;54.062;9.962;2022-07-23T04:48:19;17.50;99.90
6307;DHT22;3186;54.062;9.962;2022-07-23T04:50:46;17.50;99.90
6307;DHT22;3186;54.062;9.962;2022-07-23T04:53:21;17.50;99.90
6307;DHT22;3186;54.062;9.962;2022-07-23T04:55:49;17.50;99.90
6307;DHT22;3186;54.062;9.962;2022-07-23T04:58:15;17.50;99.90
6307;DHT22;3186;54.062;9.962;2022-07-23T05:00:41;17.50;99.90
6307;DHT22;3186;54.062;9.962;2022-07-23T05:03:07;17.50;99.90
6307;DHT22;3186;54.062;9.962;2022-07-23T05:05:33;17.60;99.90
6307;DHT22;3186;54.062;9.962;2022-07-23T05:08:07;17.60;99.90
6307;DHT22;3186;54.062;9.962;2022-07-23T05:10:35;17.60;99.90
6307;DHT22;3186;54.062;9.962;2022-07-23T05:13:02;17.60;99.90
6307;DHT22;3186;54.062;9.962;2022-07-23T05:15:28;17.60;99.90
6307;DHT22;3186;54.062;9.962;2022-07-23T05:17:55;17.60;99.90
6307;DHT22;3186;54.062;9.962;2022-07-23T05:20:21;17.70;99.90
6307;DHT22;3186;54.062;9.962;2022-07-23T05:22:47;17.70;99.90
6307;DHT22;3186;54.062;9.962;2022-07-23T05:25:12;17.70;99.90
6307;DHT22;3186;54.062;9.962;2022-07-23T05:27:38;17.70;99.90
6307;DHT22;3186;54.062;9.962;2022-07-23T05:30:05;17.60;99.90
6307;DHT22;3186;54.062;9.962;2022-07-23T05:32:34;17.80;99.90
6307;DHT22;3186;54.062;9.962;2022-07-23T05:35:10;17.80;99.90
6307;DHT22;3186;54.062;9.962;2022-07-23T05:37:39;17.80;99.90
6307;DHT22;3186;54.062;9.962;2022-07-23T05:40:08;17.80;99.90
6307;DHT22;3186;54.062;9.962;2022-07-23T05:42:35;17.90;99.90
6307;DHT22;3186;54.062;9.962;2022-07-23T05:45:02;17.90;99.90
6307;DHT22;3186;54.062;9.962;2022-07-23T05:47:38;17.90;99.90
6307;DHT22;3186;54.062;9.962;2022-07-23T05:50:04;17.80;99.90
6307;DHT22;3186;54.062;9.962;2022-07-23T05:52:41;17.90;99.90
6307;DHT22;3186;54.062;9.962;2022-07-23T05:55:27;17.90;99.90
6307;DHT22;3186;54.062;9.962;2022-07-23T05:57:56;17.90;99.90
6307;DHT22;3186;54.062;9.962;2022-07-23T06:00:22;17.90;99.90
6307;DHT22;3186;54.062;9.962;2022-07-23T06:02:48;17.90;99.90
6307;DHT22;3186;54.062;9.962;2022-07-23T06:05:16;17.80;99.90
6307;DHT22;3186;54.062;9.962;2022-07-23T06:07:43;17.90;99.90
6307;DHT22;3186;54.062;9.962;2022-07-23T06:10:09;18.00;99.90
6307;DHT22;3186;54.062;9.962;2022-07-23T06:12:35;18.00;99.90
6307;DHT22;3186;54.062;9.962;2022-07-23T06:15:02;18.00;99.90
6307;DHT22;3186;54.062;9.962;2022-07-23T06:17:28;18.00;99.90
6307;DHT22;3186;54.062;9.962;2022-07-23T06:19:54;18.00;99.90
6307;DHT22;3186;54.062;9.962;2022-07-23T06:22:20;18.00;99.90
6307;DHT22;3186;54.062;9.962;2022-07-23T06:24:47;17.90;99.90
6307;DHT22;3186;54.062;9.962;2022-07-23T06:27:13;18.00;99.90
6307;DHT22;3186;54.062;9.962;2022-07-23T06:29:39;18.00;99.90
6307;DHT22;3186;54.062;9.962;2022-07-23T06:32:07;18.00;99.90
6307;DHT22;3186;54.062;9.962;2022-07-23T06:34:33;18.00;99.90
6307;DHT22;3186;54.062;9.962;2022-07-23T06:36:59;18.00;99.90
6307;DHT22;3186;54.062;9.962;2022-07-23T06:39:26;18.00;99.90
6307;DHT22;3186;54.062;9.962;2022-07-23T06:41:52;18.00;99.90
6307;DHT22;3186;54.062;9.962;2022-07-23T06:44:18;18.00;99.90
6307;DHT22;3186;54.062;9.962;2022-07-23T06:46:47;18.00;99.90
6307;DHT22;3186;54.062;9.962;2022-07-23T06:49:12;18.00;99.90
6307;DHT22;3186;54.062;9.962;2022-07-23T06:51:38;18.00;99.90
6307;DHT22;3186;54.062;9.962;2022-07-23T06:54:04;17.30;99.90
6307;DHT22;3186;54.062;9.962;2022-07-23T06:56:30;18.00;99.90
6307;DHT22;3186;54.062;9.962;2022-07-23T06:58:56;17.90;99.90
6307;DHT22;3186;54.062;9.962;2022-07-23T07:01:22;18.00;99.90
6307;DHT22;3186;54.062;9.962;2022-07-23T07:03:48;18.00;99.90
6307;DHT22;3186;54.062;9.962;2022-07-23T07:06:14;18.10;99.90
6307;DHT22;3186;54.062;9.962;2022-07-23T07:08:40;18.10;99.90
6307;DHT22;3186;54.062;9.962;2022-07-23T07:11:06;18.10;99.90
6307;DHT22;3186;54.062;9.962;2022-07-23T07:13:32;18.10;99.90
6307;DHT22;3186;54.062;9.962;2022-07-23T07:15:58;18.10;99.90
6307;DHT22;3186;54.062;9.962;2022-07-23T07:18:24;18.20;99.90
6307;DHT22;3186;54.062;9.962;2022-07-23T07:20:49;18.20;99.90
6307;DHT22;3186;54.062;9.962;2022-07-23T07:23:15;18.20;99.90
6307;DHT22;3186;54.062;9.962;2022-07-23T07:25:41;18.20;99.90
6307;DHT22;3186;54.062;9.962;2022-07-23T07:28:07;18.30;99.90
6307;DHT22;3186;54.062;9.962;2022-07-23T07:30:33;18.30;99.90
6307;DHT22;3186;54.062;9.962;2022-07-23T07:32:59;18.40;99.90
6307;DHT22;3186;54.062;9.962;2022-07-23T07:35:25;18.50;99.90
6307;DHT22;3186;54.062;9.962;2022-07-23T07:37:51;18.60;99.90
6307;DHT22;3186;54.062;9.962;2022-07-23T07:40:17;18.60;99.90
6307;DHT22;3186;54.062;9.962;2022-07-23T07:42:48;18.70;99.90
6307;DHT22;3186;54.062;9.962;2022-07-23T07:45:14;18.70;99.90
6307;DHT22;3186;54.062;9.962;2022-07-23T07:47:40;18.80;99.90
6307;DHT22;3186;54.062;9.962;2022-07-23T07:50:06;19.00;99.70
6307;DHT22;3186;54.062;9.962;2022-07-23T07:52:34;19.00;99.90
6307;DHT22;3186;54.062;9.962;2022-07-23T07:55:03;19.00;99.00
6307;DHT22;3186;54.062;9.962;2022-07-23T07:57:29;19.10;99.90
6307;DHT22;3186;54.062;9.962;2022-07-23T07:59:55;19.10;96.70
6307;DHT22;3186;54.062;9.962;2022-07-23T08:02:20;19.20;97.50
6307;DHT22;3186;54.062;9.962;2022-07-23T08:04:46;19.20;97.30
6307;DHT22;3186;54.062;9.962;2022-07-23T08:07:14;19.30;96.30
6307;DHT22;3186;54.062;9.962;2022-07-23T08:09:41;19.30;98.10
6307;DHT22;3186;54.062;9.962;2022-07-23T08:12:07;19.50;96.20
6307;DHT22;3186;54.062;9.962;2022-07-23T08:14:33;19.60;92.90
6307;DHT22;3186;54.062;9.962;2022-07-23T08:16:59;19.60;91.80
6307;DHT22;3186;54.062;9.962;2022-07-23T08:19:25;19.70;91.20
6307;DHT22;3186;54.062;9.962;2022-07-23T08:21:51;19.70;91.30
6307;DHT22;3186;54.062;9.962;2022-07-23T08:24:17;19.60;91.20
6307;DHT22;3186;54.062;9.962;2022-07-23T08:26:43;19.70;90.10
6307;DHT22;3186;54.062;9.962;2022-07-23T08:29:09;19.90;91.40
6307;DHT22;3186;54.062;9.962;2022-07-23T08:31:35;20.00;84.20
6307;DHT22;3186;54.062;9.962;2022-07-23T08:34:01;20.00;83.40
6307;DHT22;3186;54.062;9.962;2022-07-23T08:36:28;19.80;82.60
6307;DHT22;3186;54.062;9.962;2022-07-23T08:38:58;19.80;84.00
6307;DHT22;3186;54.062;9.962;2022-07-23T08:41:25;20.10;84.40
6307;DHT22;3186;54.062;9.962;2022-07-23T08:43:51;20.20;77.50
6307;DHT22;3186;54.062;9.962;2022-07-23T08:46:19;20.30;76.80
6307;DHT22;3186;54.062;9.962;2022-07-23T08:48:47;20.30;73.60
6307;DHT22;3186;54.062;9.962;2022-07-23T08:51:14;20.30;71.00
6307;DHT22;3186;54.062;9.962;2022-07-23T08:53:40;20.20;69.70
6307;DHT22;3186;54.062;9.962;2022-07-23T08:56:07;20.10;78.60
6307;DHT22;3186;54.062;9.962;2022-07-23T08:58:34;19.90;83.60
6307;DHT22;3186;54.062;9.962;2022-07-23T09:01:00;20.10;83.60
6307;DHT22;3186;54.062;9.962;2022-07-23T09:03:29;20.20;78.20
6307;DHT22;3186;54.062;9.962;2022-07-23T09:05:57;20.20;74.80
6307;DHT22;3186;54.062;9.962;2022-07-23T09:08:25;20.30;75.60
6307;DHT22;3186;54.062;9.962;2022-07-23T09:11:00;20.30;75.40
6307;DHT22;3186;54.062;9.962;2022-07-23T09:13:41;20.40;68.60
6307;DHT22;3186;54.062;9.962;2022-07-23T09:18:47;20.30;72.60
6307;DHT22;3186;54.062;9.962;2022-07-23T09:21:28;20.40;68.40
6307;DHT22;3186;54.062;9.962;2022-07-23T09:26:31;20.30;66.30
6307;DHT22;3186;54.062;9.962;2022-07-23T09:32:04;20.40;64.80
6307;DHT22;3186;54.062;9.962;2022-07-23T09:34:33;20.60;63.30
6307;DHT22;3186;54.062;9.962;2022-07-23T09:39:40;20.80;60.90
6307;DHT22;3186;54.062;9.962;2022-07-23T09:42:32;20.90;54.40
6307;DHT22;3186;54.062;9.962;2022-07-23T09:44:59;21.20;57.50
6307;DHT22;3186;54.062;9.962;2022-07-23T09:47:27;21.40;56.60
6307;DHT22;3186;54.062;9.962;2022-07-23T09:50:05;21.00;51.30
6307;DHT22;3186;54.062;9.962;2022-07-23T09:52:44;20.70;53.90
6307;DHT22;3186;54.062;9.962;2022-07-23T09:55:11;21.10;65.60
6307;DHT22;3186;54.062;9.962;2022-07-23T09:57:40;21.20;59.50
6307;DHT22;3186;54.062;9.962;2022-07-23T10:00:08;21.40;53.70
6307;DHT22;3186;54.062;9.962;2022-07-23T10:02:36;21.60;52.10
6307;DHT22;3186;54.062;9.962;2022-07-23T10:05:26;21.60;47.70
6307;DHT22;3186;54.062;9.962;2022-07-23T10:08:12;21.60;47.70
6307;DHT22;3186;54.062;9.962;2022-07-23T10:10:41;21.30;51.00
6307;DHT22;3186;54.062;9.962;2022-07-23T10:13:40;21.50;54.80
6307;DHT22;3186;54.062;9.962;2022-07-23T10:16:13;21.50;56.50
6307;DHT22;3186;54.062;9.962;2022-07-23T10:18:39;21.60;47.90
6307;DHT22;3186;54.062;9.962;2022-07-23T10:21:07;21.90;48.20
6307;DHT22;3186;54.062;9.962;2022-07-23T10:24:20;21.90;48.00
6307;DHT22;3186;54.062;9.962;2022-07-23T10:29:29;21.80;46.50
6307;DHT22;3186;54.062;9.962;2022-07-23T10:32:08;21.90;48.90
6307;DHT22;3186;54.062;9.962;2022-07-23T10:37:42;22.40;42.70
6307;DHT22;3186;54.062;9.962;2022-07-23T10:40:17;22.30;42.20
6307;DHT22;3186;54.062;9.962;2022-07-23T10:42:47;22.10;36.00
6307;DHT22;3186;54.062;9.962;2022-07-23T10:45:32;21.80;38.60
6307;DHT22;3186;54.062;9.962;2022-07-23T10:48:16;22.20;33.90
6307;DHT22;3186;54.062;9.962;2022-07-23T10:50:43;22.40;38.60
6307;DHT22;3186;54.062;9.962;2022-07-23T10:53:16;22.50;38.90
6307;DHT22;3186;54.062;9.962;2022-07-23T10:55:48;22.50;37.10
6307;DHT22;3186;54.062;9.962;2022-07-23T10:58:22;22.60;29.70
6307;DHT22;3186;54.062;9.962;2022-07-23T11:00:49;22.50;38.60
6307;DHT22;3186;54.062;9.962;2022-07-23T11:03:33;22.60;36.20
6307;DHT22;3186;54.062;9.962;2022-07-23T11:06:02;22.30;36.30
6307;DHT22;3186;54.062;9.962;2022-07-23T11:08:29;22.20;38.80
6307;DHT22;3186;54.062;9.962;2022-07-23T11:16:03;22.40;34.50
6307;DHT22;3186;54.062;9.962;2022-07-23T11:26:45;22.60;30.90
6307;DHT22;3186;54.062;9.962;2022-07-23T11:31:54;22.30;28.10
6307;DHT22;3186;54.062;9.962;2022-07-23T11:34:45;22.50;31.10
6307;DHT22;3186;54.062;9.962;2022-07-23T11:37:41;20.40;24.70
6307;DHT22;3186;54.062;9.962;2022-07-23T11:40:10;22.80;29.90
6307;DHT22;3186;54.062;9.962;2022-07-23T11:45:18;23.10;28.30
6307;DHT22;3186;54.062;9.962;2022-07-23T11:47:44;23.10;25.50
6307;DHT22;3186;54.062;9.962;2022-07-23T11:50:10;23.10;24.40
6307;DHT22;3186;54.062;9.962;2022-07-23T11:52:36;23.00;25.80
6307;DHT22;3186;54.062;9.962;2022-07-23T11:55:04;23.00;25.80
6307;DHT22;3186;54.062;9.962;2022-07-23T11:57:40;22.80;27.60
6307;DHT22;3186;54.062;9.962;2022-07-23T12:00:11;22.90;26.80
6307;DHT22;3186;54.062;9.962;2022-07-23T12:02:46;22.70;28.50
6307;DHT22;3186;54.062;9.962;2022-07-23T12:05:18;22.60;26.60
6307;DHT22;3186;54.062;9.962;2022-07-23T12:07:45;22.60;28.60
6307;DHT22;3186;54.062;9.962;2022-07-23T12:10:25;22.70;30.50
6307;DHT22;3186;54.062;9.962;2022-07-23T12:12:57;22.90;26.20
6307;DHT22;3186;54.062;9.962;2022-07-23T12:15:29;23.00;27.90
6307;DHT22;3186;54.062;9.962;2022-07-23T12:17:58;22.80;26.40
6307;DHT22;3186;54.062;9.962;2022-07-23T12:20:26;22.70;28.60
6307;DHT22;3186;54.062;9.962;2022-07-23T12:22:57;22.70;26.50
6307;DHT22;3186;54.062;9.962;2022-07-23T12:25:33;22.70;26.90
6307;DHT22;3186;54.062;9.962;2022-07-23T12:30:37;22.70;23.70
6307;DHT22;3186;54.062;9.962;2022-07-23T12:33:04;22.70;26.10
6307;DHT22;3186;54.062;9.962;2022-07-23T12:35:38;24.00;25.60
6307;DHT22;3186;54.062;9.962;2022-07-23T12:38:17;22.90;23.10
6307;DHT22;3186;54.062;9.962;2022-07-23T12:40:57;23.10;21.10
6307;DHT22;3186;54.062;9.962;2022-07-23T12:43:32;23.20;21.40
6307;DHT22;3186;54.062;9.962;2022-07-23T12:46:06;23.30;21.40
6307;DHT22;3186;54.062;9.962;2022-07-23T12:48:33;23.20;20.90
6307;DHT22;3186;54.062;9.962;2022-07-23T12:51:06;22.90;21.30
6307;DHT22;3186;54.062;9.962;2022-07-23T12:56:06;23.40;22.90
6307;DHT22;3186;54.062;9.962;2022-07-23T12:59:06;23.50;21.30
6307;DHT22;3186;54.062;9.962;2022-07-23T13:01:38;23.40;19.30
6307;DHT22;3186;54.062;9.962;2022-07-23T13:04:18;23.40;19.70
6307;DHT22;3186;54.062;9.962;2022-07-23T13:06:49;23.20;21.40
6307;DHT22;3186;54.062;9.962;2022-07-23T13:09:21;23.30;23.40
6307;DHT22;3186;54.062;9.962;2022-07-23T13:11:48;23.40;20.50
6307;DHT22;3186;54.062;9.962;2022-07-23T13:14:16;23.30;24.00
6307;DHT22;3186;54.062;9.962;2022-07-23T13:16:42;23.40;21.00
6307;DHT22;3186;54.062;9.962;2022-07-23T13:19:08;23.60;21.40
6307;DHT22;3186;54.062;9.962;2022-07-23T13:21:34;23.70;20.00
6307;DHT22;3186;54.062;9.962;2022-07-23T13:24:00;23.70;20.20
6307;DHT22;3186;54.062;9.962;2022-07-23T13:26:26;23.70;18.70
6307;DHT22;3186;54.062;9.962;2022-07-23T13:28:53;23.70;13.90
6307;DHT22;3186;54.062;9.962;2022-07-23T13:31:19;23.50;21.20
6307;DHT22;3186;54.062;9.962;2022-07-23T13:33:45;23.60;17.20
6307;DHT22;3186;54.062;9.962;2022-07-23T13:36:11;23.20;15.50
6307;DHT22;3186;54.062;9.962;2022-07-23T13:38:37;23.40;19.20
6307;DHT22;3186;54.062;9.962;2022-07-23T13:41:05;23.40;18.70
6307;DHT22;3186;54.062;9.962;2022-07-23T13:43:31;23.40;19.80
6307;DHT22;3186;54.062;9.962;2022-07-23T13:45:57;23.20;20.10
6307;DHT22;3186;54.062;9.962;2022-07-23T13:48:24;23.30;20.40
6307;DHT22;3186;54.062;9.962;2022-07-23T13:50:50;23.20;21.90
6307;DHT22;3186;54.062;9.962;2022-07-23T13:53:21;23.10;21.40
6307;DHT22;3186;54.062;9.962;2022-07-23T13:55:49;23.20;19.90
6307;DHT22;3186;54.062;9.962;2022-07-23T13:58:15;23.40;18.80
6307;DHT22;3186;54.062;9.962;2022-07-23T14:00:50;23.30;18.20
6307;DHT22;3186;54.062;9.962;2022-07-23T14:03:17;23.10;18.10
6307;DHT22;3186;54.062;9.962;2022-07-23T14:05:43;23.40;17.50
6307;DHT22;3186;54.062;9.962;2022-07-23T14:08:09;23.40;15.10
6307;DHT22;3186;54.062;9.962;2022-07-23T14:10:35;23.50;16.50
6307;DHT22;3186;54.062;9.962;2022-07-23T14:13:01;23.50;15.30
6307;DHT22;3186;54.062;9.962;2022-07-23T14:15:29;23.30;16.30
6307;DHT22;3186;54.062;9.962;2022-07-23T14:17:56;23.20;15.10
6307;DHT22;3186;54.062;9.962;2022-07-23T14:20:22;23.10;19.00
6307;DHT22;3186;54.062;9.962;2022-07-23T14:22:48;23.20;16.00
6307;DHT22;3186;54.062;9.962;2022-07-23T14:25:15;23.20;19.00
6307;DHT22;3186;54.062;9.962;2022-07-23T14:27:41;22.70;19.10
6307;DHT22;3186;54.062;9.962;2022-07-23T14:30:08;23.00;20.10
6307;DHT22;3186;54.062;9.962;2022-07-23T14:32:34;23.30;19.30
6307;DHT22;3186;54.062;9.962;2022-07-23T14:35:01;23.50;16.60
6307;DHT22;3186;54.062;9.962;2022-07-23T14:37:26;23.20;18.80
6307;DHT22;3186;54.062;9.962;2022-07-23T14:39:52;23.30;18.50
6307;DHT22;3186;54.062;9.962;2022-07-23T14:42:18;23.20;19.30
6307;DHT22;3186;54.062;9.962;2022-07-23T14:44:45;23.00;18.00
6307;DHT22;3186;54.062;9.962;2022-07-23T14:47:11;23.10;18.60
6307;DHT22;3186;54.062;9.962;2022-07-23T14:49:37;22.70;15.40
6307;DHT22;3186;54.062;9.962;2022-07-23T14:52:04;22.80;20.60
6307;DHT22;3186;54.062;9.962;2022-07-23T14:54:30;22.90;15.10
6307;DHT22;3186;54.062;9.962;2022-07-23T14:56:58;22.90;18.80
6307;DHT22;3186;54.062;9.962;2022-07-23T14:59:24;23.10;17.90
6307;DHT22;3186;54.062;9.962;2022-07-23T15:01:51;23.20;16.50
6307;DHT22;3186;54.062;9.962;2022-07-23T15:04:17;23.20;15.40
6307;DHT22;3186;54.062;9.962;2022-07-23T15:06:43;23.20;12.80
6307;DHT22;3186;54.062;9.962;2022-07-23T15:09:10;23.40;14.70
6307;DHT22;3186;54.062;9.962;2022-07-23T15:11:36;23.20;13.80
6307;DHT22;3186;54.062;9.962;2022-07-23T15:14:07;23.30;15.90
6307;DHT22;3186;54.062;9.962;2022-07-23T15:16:34;23.30;15.10
6307;DHT22;3186;54.062;9.962;2022-07-23T15:19:00;23.50;15.00
6307;DHT22;3186;54.062;9.962;2022-07-23T15:21:28;23.60;14.30
6307;DHT22;3186;54.062;9.962;2022-07-23T15:23:57;23.70;13.80
6307;DHT22;3186;54.062;9.962;2022-07-23T15:26:27;23.40;12.80
6307;DHT22;3186;54.062;9.962;2022-07-23T15:28:54;23.30;14.60
6307;DHT22;3186;54.062;9.962;2022-07-23T15:31:20;23.30;15.10
6307;DHT22;3186;54.062;9.962;2022-07-23T15:33:46;23.30;15.00
6307;DHT22;3186;54.062;9.962;2022-07-23T15:36:12;23.30;14.80
6307;DHT22;3186;54.062;9.962;2022-07-23T15:38:38;23.30;14.70
6307;DHT22;3186;54.062;9.962;2022-07-23T15:41:07;23.40;13.20
6307;DHT22;3186;54.062;9.962;2022-07-23T15:43:33;23.40;13.20
6307;DHT22;3186;54.062;9.962;2022-07-23T15:45:59;23.30;14.60
6307;DHT22;3186;54.062;9.962;2022-07-23T15:48:25;23.20;14.90
6307;DHT22;3186;54.062;9.962;2022-07-23T15:50:51;23.20;14.70
6307;DHT22;3186;54.062;9.962;2022-07-23T15:53:17;23.40;14.80
6307;DHT22;3186;54.062;9.962;2022-07-23T15:55:44;23.30;13.50
6307;DHT22;3186;54.062;9.962;2022-07-23T15:58:10;23.30;14.60
6307;DHT22;3186;54.062;9.962;2022-07-23T16:00:36;23.40;14.70
6307;DHT22;3186;54.062;9.962;2022-07-23T16:03:02;22.90;14.60
6307;DHT22;3186;54.062;9.962;2022-07-23T16:05:28;23.10;14.40
6307;DHT22;3186;54.062;9.962;2022-07-23T16:08:04;22.90;15.10
6307;DHT22;3186;54.062;9.962;2022-07-23T16:10:30;22.80;12.80
6307;DHT22;3186;54.062;9.962;2022-07-23T16:12:56;22.90;14.70
6307;DHT22;3186;54.062;9.962;2022-07-23T16:15:23;22.90;14.60
6307;DHT22;3186;54.062;9.962;2022-07-23T16:17:49;23.10;14.60
6307;DHT22;3186;54.062;9.962;2022-07-23T16:20:16;23.00;13.90
6307;DHT22;3186;54.062;9.962;2022-07-23T16:22:43;22.90;14.60
6307;DHT22;3186;54.062;9.962;2022-07-23T16:25:09;22.90;12.30
6307;DHT22;3186;54.062;9.962;2022-07-23T16:27:36;22.80;14.40
6307;DHT22;3186;54.062;9.962;2022-07-23T16:30:04;22.70;14.30
6307;DHT22;3186;54.062;9.962;2022-07-23T16:32:30;22.60;14.50
6307;DHT22;3186;54.062;9.962;2022-07-23T16:34:56;22.30;16.40
6307;DHT22;3186;54.062;9.962;2022-07-23T16:37:22;22.30;15.90
6307;DHT22;3186;54.062;9.962;2022-07-23T16:39:47;22.40;15.50
6307;DHT22;3186;54.062;9.962;2022-07-23T16:42:13;22.60;15.20
6307;DHT22;3186;54.062;9.962;2022-07-23T16:44:39;22.50;14.30
6307;DHT22;3186;54.062;9.962;2022-07-23T16:47:07;22.60;14.40
6307;DHT22;3186;54.062;9.962;2022-07-23T16:49:34;22.70;14.30